Time;durP1;ratioP1;P1;durP2;ratioP2;P2;SDS_P1;SDS_P2;PMS_P1;PMS_P2;Temp;Humidity;BMP_temperature;BMP_pressure;BME280_temperature;BME280_humidity;BME280_pressure;Samples;Min_cycle;Max_cycle;Signal;HPM_P1;HPM_P2
2022/04/19 00:00:36;;;;;;;11.60;5.82;;;;;;;;;;5028371;28;20445;-55
2022/04/19 00:03:03;;;;;;;9.23;5.40;;;;;;;;;;5027683;28;20049;-55
2022/04/19 00:05:29;;;;;;;12.05;6.97;;;;;;;;;;5028554;28;20077;-55
2022/04/19 00:07:56;;;;;;;9.80;5.88;;;;;;;;;;5028382;28;20111;-55
2022/04/19 00:10:22;;;;;;;10.82;6.75;;;;;;;;;;5028411;28;20407;-54
2022/04/19 00:12:48;;;;;;;10.00;6.00;;;;;;;;;;5027551;28;20096;-55
2022/04/19 00:15:15;;;;;;;11.05;5.93;;;;;;;;;;5028044;28;20042;-55
2022/04/19 00:17:42;;;;;;;10.90;6.13;;;;;;;;;;5026850;28;20041;-55
2022/04/19 00:20:09;;;;;;;8.95;5.60;;;;;;;;;;5028077;28;20112;-54
2022/04/19 00:22:35;;;;;;;9.80;5.88;;;;;;;;;;5027877;28;20049;-55
2022/04/19 00:25:01;;;;;;;9.63;6.13;;;;;;;;;;5028101;28;20038;-56
2022/04/19 00:27:27;;;;;;;8.23;5.60;;;;;;;;;;5027672;28;20107;-54
2022/04/19 00:29:53;;;;;;;10.40;6.68;;;;;;;;;;5027732;28;20140;-55
2022/04/19 00:32:20;;;;;;;9.38;5.25;;;;;;;;;;5027498;28;20519;-55
2022/04/19 00:34:46;;;;;;;11.80;6.43;;;;;;;;;;5027361;28;20095;-55
2022/04/19 00:37:13;;;;;;;9.43;5.30;;;;;;;;;;5027626;28;20057;-55
2022/04/19 00:39:40;;;;;;;10.07;6.18;;;;;;;;;;5027495;28;20487;-55
2022/04/19 00:42:07;;;;;;;10.98;6.03;;;;;;;;;;5005377;28;20140;-55
2022/04/19 00:44:37;;;;;;;11.52;7.05;;;;;;;;;;5006851;28;20057;-55
2022/04/19 00:47:05;;;;;;;15.82;7.80;;;;;;;;;;5007740;28;20496;-54
2022/04/19 00:49:33;;;;;;;22.80;9.65;;;;;;;;;;5007886;28;20460;-54
2022/04/19 00:52:00;;;;;;;17.25;8.40;;;;;;;;;;5008137;28;20412;-55
2022/04/19 00:54:27;;;;;;;15.00;7.43;;;;;;;;;;5006671;28;20423;-55
2022/04/19 00:56:54;;;;;;;16.08;7.80;;;;;;;;;;5006690;28;20046;-54
2022/04/19 00:59:22;;;;;;;15.98;7.15;;;;;;;;;;5007492;28;20141;-55
2022/04/19 01:01:50;;;;;;;10.35;6.47;;;;;;;;;;5007185;28;20476;-55
2022/04/19 01:04:16;;;;;;;12.82;7.00;;;;;;;;;;5007729;28;20061;-55
2022/04/19 01:06:43;;;;;;;10.18;6.25;;;;;;;;;;5006919;28;20053;-55
2022/04/19 01:09:09;;;;;;;11.63;6.40;;;;;;;;;;5007881;28;20403;-55
2022/04/19 01:14:21;;;;;;;9.82;6.28;;;;;;;;;;5007186;28;20523;-55
2022/04/19 01:16:47;;;;;;;9.95;5.93;;;;;;;;;;4989590;28;20077;-55
2022/04/19 01:19:15;;;;;;;9.40;5.63;;;;;;;;;;5007611;28;20099;-55
2022/04/19 01:21:48;;;;;;;13.27;6.55;;;;;;;;;;5006541;28;20042;-54
2022/04/19 01:24:16;;;;;;;11.15;6.40;;;;;;;;;;4989680;28;20145;-54
2022/04/19 01:26:43;;;;;;;10.30;6.03;;;;;;;;;;5005947;28;20046;-55
2022/04/19 01:29:10;;;;;;;10.13;6.25;;;;;;;;;;5007274;28;20050;-55
2022/04/19 01:31:37;;;;;;;10.18;5.00;;;;;;;;;;5006913;28;20038;-55
2022/04/19 01:34:03;;;;;;;10.00;5.10;;;;;;;;;;5006515;28;20050;-55
2022/04/19 01:36:29;;;;;;;9.20;5.30;;;;;;;;;;5007282;28;20049;-55
2022/04/19 01:38:56;;;;;;;8.65;5.57;;;;;;;;;;5007261;28;20038;-55
2022/04/19 01:41:22;;;;;;;11.52;5.53;;;;;;;;;;5006731;28;20488;-55
2022/04/19 01:43:48;;;;;;;7.97;4.78;;;;;;;;;;5006089;28;20133;-54
2022/04/19 01:46:17;;;;;;;9.73;5.03;;;;;;;;;;5006932;28;20418;-54
2022/04/19 01:48:43;;;;;;;;;;;;;;;;;;4988895;28;20487;-54
2022/04/19 01:51:09;;;;;;;9.18;5.70;;;;;;;;;;5006741;28;19922;-54
2022/04/19 01:53:35;;;;;;;8.82;5.72;;;;;;;;;;5006171;28;20514;-55
2022/04/19 01:56:01;;;;;;;10.18;5.53;;;;;;;;;;5006401;28;20045;-55
2022/04/19 01:58:27;;;;;;;9.02;5.38;;;;;;;;;;4988920;28;20053;-54
2022/04/19 02:00:53;;;;;;;10.70;5.90;;;;;;;;;;5006659;28;20175;-54
2022/04/19 02:03:20;;;;;;;10.15;5.63;;;;;;;;;;5006000;28;21331;-55
2022/04/19 02:05:46;;;;;;;9.13;5.43;;;;;;;;;;5005903;28;20112;-54
2022/04/19 02:08:12;;;;;;;7.65;5.10;;;;;;;;;;5021117;28;20049;-55
2022/04/19 02:10:38;;;;;;;10.60;5.65;;;;;;;;;;5025852;28;20046;-54
2022/04/19 02:13:05;;;;;;;9.75;5.47;;;;;;;;;;5025278;28;20140;-55
2022/04/19 02:15:31;;;;;;;9.60;5.30;;;;;;;;;;5025571;28;20052;-54
2022/04/19 02:17:57;;;;;;;13.95;5.95;;;;;;;;;;5026172;28;20045;-54
2022/04/19 02:20:23;;;;;;;10.20;5.80;;;;;;;;;;5025956;28;20050;-55
2022/04/19 02:22:49;;;;;;;9.68;6.00;;;;;;;;;;5025343;28;20478;-54
2022/04/19 02:25:16;;;;;;;20.52;8.90;;;;;;;;;;5025999;28;20044;-55
2022/04/19 02:27:43;;;;;;;19.63;8.57;;;;;;;;;;5024870;28;20049;-55
2022/04/19 02:30:13;;;;;;;23.08;10.32;;;;;;;;;;5025468;28;20128;-54
2022/04/19 02:32:40;;;;;;;24.67;10.95;;;;;;;;;;5025758;28;20096;-54
2022/04/19 02:35:06;;;;;;;32.17;13.60;;;;;;;;;;5025552;28;20113;-56
2022/04/19 02:37:32;;;;;;;21.13;9.75;;;;;;;;;;5025196;28;20053;-55
2022/04/19 02:39:58;;;;;;;21.92;9.82;;;;;;;;;;5026010;28;20051;-54
2022/04/19 02:42:25;;;;;;;17.80;8.52;;;;;;;;;;5025257;28;20156;-54
2022/04/19 02:44:51;;;;;;;18.10;9.20;;;;;;;;;;5024938;28;20052;-54
2022/04/19 02:47:18;;;;;;;17.67;8.35;;;;;;;;;;5025392;28;20132;-55
2022/04/19 02:49:45;;;;;;;12.60;6.78;;;;;;;;;;5025150;28;20095;-55
2022/04/19 02:52:11;;;;;;;13.35;7.03;;;;;;;;;;5025144;28;20045;-55
2022/04/19 02:54:37;;;;;;;13.55;7.22;;;;;;;;;;5024823;28;20120;-55
2022/04/19 02:57:04;;;;;;;11.15;6.30;;;;;;;;;;5024610;28;20102;-55
2022/04/19 02:59:30;;;;;;;12.48;6.80;;;;;;;;;;5024690;28;20407;-55
2022/04/19 03:01:56;;;;;;;12.50;7.07;;;;;;;;;;5025459;28;20384;-55
2022/04/19 03:04:22;;;;;;;13.07;6.22;;;;;;;;;;5024647;28;20132;-55
2022/04/19 03:06:49;;;;;;;16.08;6.50;;;;;;;;;;5024627;28;20168;-54
2022/04/19 03:09:15;;;;;;;11.80;5.88;;;;;;;;;;5007572;28;20058;-55
2022/04/19 03:11:41;;;;;;;10.95;5.85;;;;;;;;;;5023902;28;20387;-54
2022/04/19 03:14:07;;;;;;;9.60;5.28;;;;;;;;;;5024986;28;20049;-55
2022/04/19 03:16:34;;;;;;;10.55;5.60;;;;;;;;;;5024336;28;20125;-54
2022/04/19 03:19:00;;;;;;;9.35;5.38;;;;;;;;;;5024795;28;20037;-54
2022/04/19 03:21:26;;;;;;;14.52;6.32;;;;;;;;;;5025093;28;20132;-54
2022/04/19 03:29:22;;;;;;;10.23;5.75;;;;;;;;;;5024814;28;20133;-54
2022/04/19 03:31:48;;;;;;;12.55;6.03;;;;;;;;;;5006628;28;20053;-55
2022/04/19 03:34:15;;;;;;;10.05;5.63;;;;;;;;;;5024439;28;20049;-55
2022/04/19 03:36:41;;;;;;;11.55;5.68;;;;;;;;;;5024536;28;20048;-55
2022/04/19 03:39:07;;;;;;;7.80;5.20;;;;;;;;;;5024778;28;20498;-54
2022/04/19 03:41:33;;;;;;;13.02;6.18;;;;;;;;;;5023868;28;20667;-55
2022/04/19 03:43:59;;;;;;;10.15;5.85;;;;;;;;;;5007121;28;20091;-55
2022/04/19 03:46:25;;;;;;;11.18;6.10;;;;;;;;;;5024830;28;20087;-54
2022/04/19 03:48:52;;;;;;;11.55;6.32;;;;;;;;;;5024077;28;20783;-55
2022/04/19 03:51:18;;;;;;;9.52;5.55;;;;;;;;;;5024600;28;20091;-54
2022/04/19 03:53:44;;;;;;;10.45;6.07;;;;;;;;;;5024111;28;20075;-54
2022/04/19 03:56:10;;;;;;;11.00;5.82;;;;;;;;;;5024250;28;20522;-55
2022/04/19 03:58:38;;;;;;;12.27;6.45;;;;;;;;;;5024163;28;20046;-54
2022/04/19 04:01:04;;;;;;;11.32;6.57;;;;;;;;;;5023958;28;20614;-54
2022/04/19 04:03:30;;;;;;;15.35;6.65;;;;;;;;;;5023882;28;20120;-55
2022/04/19 04:05:56;;;;;;;15.38;6.88;;;;;;;;;;5024709;28;20096;-55
2022/04/19 04:08:23;;;;;;;16.42;7.50;;;;;;;;;;5024508;28;20450;-54
2022/04/19 04:10:50;;;;;;;17.88;7.40;;;;;;;;;;5024267;28;20046;-55
2022/04/19 04:13:16;;;;;;;12.52;7.13;;;;;;;;;;5023600;28;20518;-55
2022/04/19 04:15:42;;;;;;;12.38;7.28;;;;;;;;;;5024323;28;20048;-54
2022/04/19 04:18:09;;;;;;;12.60;7.10;;;;;;;;;;5024137;28;20045;-53
2022/04/19 04:20:35;;;;;;;12.05;7.30;;;;;;;;;;5024405;28;20057;-55
2022/04/19 04:23:01;;;;;;;13.52;7.50;;;;;;;;;;5024343;28;20053;-56
2022/04/19 04:25:27;;;;;;;13.85;7.70;;;;;;;;;;5024694;28;20052;-54
2022/04/19 04:27:53;;;;;;;15.88;8.40;;;;;;;;;;5023435;28;20096;-55
2022/04/19 04:30:20;;;;;;;12.07;7.28;;;;;;;;;;5027284;28;20042;-54
2022/04/19 04:32:46;;;;;;;13.88;7.50;;;;;;;;;;5027488;28;20069;-54
2022/04/19 04:35:13;;;;;;;16.30;8.38;;;;;;;;;;5028224;28;20041;-55
2022/04/19 04:37:39;;;;;;;14.85;8.60;;;;;;;;;;5027423;28;20049;-54
2022/04/19 04:40:05;;;;;;;16.17;7.97;;;;;;;;;;5027680;28;20037;-55
2022/04/19 04:42:31;;;;;;;14.73;7.97;;;;;;;;;;5026583;28;20530;-56
2022/04/19 04:44:57;;;;;;;12.50;7.82;;;;;;;;;;5027798;28;20049;-54
2022/04/19 04:50:09;;;;;;;16.98;8.13;;;;;;;;;;5027697;28;20111;-56
2022/04/19 04:52:35;;;;;;;13.00;7.40;;;;;;;;;;5027135;28;20042;-55
2022/04/19 04:55:03;;;;;;;14.52;7.45;;;;;;;;;;5027081;28;20057;-55
2022/04/19 04:57:29;;;;;;;18.00;8.63;;;;;;;;;;5026858;28;20499;-56
2022/04/19 04:59:55;;;;;;;14.38;7.28;;;;;;;;;;5027541;28;20674;-55
2022/04/19 05:02:23;;;;;;;12.38;7.35;;;;;;;;;;5027378;28;20041;-54
2022/04/19 05:04:50;;;;;;;15.18;8.55;;;;;;;;;;5027032;28;20060;-54
2022/04/19 05:07:17;;;;;;;13.38;6.63;;;;;;;;;;5027313;28;20526;-54
2022/04/19 05:09:43;;;;;;;13.82;7.85;;;;;;;;;;5026245;28;20713;-55
2022/04/19 05:12:09;;;;;;;12.90;7.30;;;;;;;;;;5026177;28;20103;-54
2022/04/19 05:14:36;;;;;;;15.43;7.60;;;;;;;;;;5026438;28;20088;-54
2022/04/19 05:17:02;;;;;;;12.30;7.45;;;;;;;;;;5027139;28;20179;-52
2022/04/19 05:19:29;;;;;;;25.85;8.35;;;;;;;;;;5027612;28;20041;-56
2022/04/19 05:21:55;;;;;;;28.10;8.07;;;;;;;;;;5027370;28;20053;-54
2022/04/19 05:24:21;;;;;;;18.83;8.00;;;;;;;;;;5023235;28;20403;-55
2022/04/19 05:26:47;;;;;;;18.30;8.00;;;;;;;;;;5011286;28;20407;-55
2022/04/19 05:29:13;;;;;;;13.80;7.53;;;;;;;;;;5007854;28;20510;-56
2022/04/19 05:31:40;;;;;;;12.00;7.30;;;;;;;;;;5009125;28;20048;-57
2022/04/19 05:34:06;;;;;;;17.40;7.93;;;;;;;;;;5006375;28;20038;-56
2022/04/19 05:36:32;;;;;;;16.98;7.18;;;;;;;;;;5007849;28;20077;-56
2022/04/19 05:38:58;;;;;;;14.95;8.43;;;;;;;;;;5009023;28;20042;-56
2022/04/19 05:41:25;;;;;;;34.70;8.95;;;;;;;;;;5010386;28;20476;-57
2022/04/19 05:43:51;;;;;;;21.02;7.97;;;;;;;;;;5005841;28;20049;-57
2022/04/19 05:46:18;;;;;;;18.02;7.43;;;;;;;;;;5015955;28;20466;-57
2022/04/19 05:48:44;;;;;;;14.00;7.75;;;;;;;;;;5015330;28;20125;-57
2022/04/19 05:51:11;;;;;;;12.57;7.30;;;;;;;;;;5016802;28;20048;-57
2022/04/19 05:53:37;;;;;;;15.50;8.05;;;;;;;;;;5024991;28;20087;-57
2022/04/19 05:56:04;;;;;;;20.60;7.95;;;;;;;;;;5025276;28;20037;-58
2022/04/19 05:58:30;;;;;;;16.50;7.63;;;;;;;;;;5025308;28;20141;-57
2022/04/19 06:00:56;;;;;;;13.85;7.57;;;;;;;;;;5024109;28;20045;-58
2022/04/19 06:06:07;;;;;;;12.27;7.25;;;;;;;;;;5024617;28;20049;-58
2022/04/19 06:08:33;;;;;;;11.20;7.00;;;;;;;;;;5025876;28;20583;-58
2022/04/19 06:11:00;;;;;;;12.65;7.20;;;;;;;;;;5007262;28;20029;-57
2022/04/19 06:13:27;;;;;;;15.38;7.10;;;;;;;;;;5024996;28;20395;-57
2022/04/19 06:15:54;;;;;;;14.25;7.93;;;;;;;;;;5024950;28;20399;-57
2022/04/19 06:18:20;;;;;;;13.40;7.15;;;;;;;;;;5025467;28;20049;-58
2022/04/19 06:20:46;;;;;;;13.02;6.72;;;;;;;;;;5025219;28;20510;-57
2022/04/19 06:23:12;;;;;;;16.58;7.40;;;;;;;;;;5024901;28;20050;-57
2022/04/19 06:25:38;;;;;;;12.50;6.95;;;;;;;;;;5025128;28;20116;-58
2022/04/19 06:28:05;;;;;;;14.15;7.05;;;;;;;;;;5020900;28;20120;-58
2022/04/19 06:30:31;;;;;;;13.93;6.90;;;;;;;;;;5025209;28;20044;-58
2022/04/19 06:32:57;;;;;;;11.85;7.13;;;;;;;;;;5025012;28;20124;-57
2022/04/19 06:35:23;;;;;;;13.20;7.07;;;;;;;;;;5025294;28;20116;-57
2022/04/19 06:37:49;;;;;;;14.27;7.40;;;;;;;;;;5025002;28;21392;-58
2022/04/19 06:40:15;;;;;;;15.13;6.90;;;;;;;;;;5025121;28;20041;-57
2022/04/19 06:42:42;;;;;;;10.70;6.53;;;;;;;;;;5023420;28;20045;-58
2022/04/19 06:45:10;;;;;;;12.57;6.40;;;;;;;;;;5025266;28;20096;-57
2022/04/19 06:47:36;;;;;;;11.88;6.85;;;;;;;;;;5024462;28;20054;-58
2022/04/19 06:50:03;;;;;;;13.00;7.28;;;;;;;;;;5024924;28;20038;-58
2022/04/19 06:52:30;;;;;;;12.57;6.15;;;;;;;;;;5024174;28;20048;-57
2022/04/19 06:54:56;;;;;;;11.13;6.32;;;;;;;;;;5024817;28;20053;-58
2022/04/19 06:57:22;;;;;;;12.13;6.40;;;;;;;;;;5023966;28;20045;-58
2022/04/19 06:59:48;;;;;;;12.52;7.15;;;;;;;;;;5024187;28;20037;-58
2022/04/19 07:02:15;;;;;;;12.57;6.25;;;;;;;;;;5024067;28;20048;-58
2022/04/19 07:04:42;;;;;;;10.32;6.20;;;;;;;;;;5024460;28;20050;-58
2022/04/19 07:07:08;;;;;;;12.50;6.55;;;;;;;;;;5024427;28;20061;-58
2022/04/19 07:09:35;;;;;;;10.55;6.10;;;;;;;;;;5024307;28;20495;-58
2022/04/19 07:12:01;;;;;;;13.80;6.13;;;;;;;;;;5024137;28;20124;-57
2022/04/19 07:14:27;;;;;;;15.10;6.72;;;;;;;;;;5024902;28;20513;-58
2022/04/19 07:16:54;;;;;;;12.40;6.20;;;;;;;;;;5024394;28;20148;-58
2022/04/19 07:19:20;;;;;;;12.60;6.95;;;;;;;;;;5006294;28;20642;-57
2022/04/19 07:27:20;;;;;;;12.43;5.97;;;;;;;;;;5005924;28;20052;-58
2022/04/19 07:29:46;;;;;;;12.65;6.57;;;;;;;;;;5023855;28;20068;-58
2022/04/19 07:32:12;;;;;;;10.40;5.93;;;;;;;;;;5024332;28;20037;-58
2022/04/19 07:34:38;;;;;;;11.32;5.95;;;;;;;;;;5024156;28;20458;-58
2022/04/19 07:37:04;;;;;;;8.75;4.80;;;;;;;;;;5024231;28;20049;-58
2022/04/19 07:39:31;;;;;;;11.48;5.63;;;;;;;;;;5024025;28;20049;-57
2022/04/19 07:42:00;;;;;;;10.32;5.22;;;;;;;;;;5023945;28;20049;-58
2022/04/19 07:44:29;;;;;;;10.23;4.72;;;;;;;;;;5024328;28;20081;-58
2022/04/19 07:46:55;;;;;;;10.18;4.60;;;;;;;;;;5006857;28;20037;-58
2022/04/19 07:49:21;;;;;;;8.50;4.30;;;;;;;;;;5024139;28;20045;-58
2022/04/19 07:51:47;;;;;;;10.40;4.72;;;;;;;;;;5023723;28;20483;-58
2022/04/19 07:54:14;;;;;;;9.50;4.45;;;;;;;;;;5023490;28;20060;-58
2022/04/19 07:56:40;;;;;;;10.02;4.53;;;;;;;;;;5023414;28;20050;-58
2022/04/19 07:59:06;;;;;;;8.07;4.28;;;;;;;;;;5024178;28;20045;-58
2022/04/19 08:01:32;;;;;;;6.75;3.92;;;;;;;;;;5023687;28;20030;-58
2022/04/19 08:03:58;;;;;;;7.30;4.15;;;;;;;;;;5025926;28;20044;-57
2022/04/19 08:06:24;;;;;;;10.88;4.65;;;;;;;;;;5027844;28;20061;-58
2022/04/19 08:08:51;;;;;;;10.95;4.82;;;;;;;;;;5027577;28;20049;-58
2022/04/19 08:11:17;;;;;;;9.20;5.38;;;;;;;;;;5027074;28;20543;-58
2022/04/19 08:13:43;;;;;;;12.98;5.88;;;;;;;;;;5028007;28;20084;-58
2022/04/19 08:16:09;;;;;;;10.65;5.28;;;;;;;;;;5027771;28;20069;-57
2022/04/19 08:18:35;;;;;;;10.20;4.70;;;;;;;;;;5027588;28;20041;-58
2022/04/19 08:21:01;;;;;;;8.75;4.90;;;;;;;;;;5027552;28;20038;-58
2022/04/19 08:23:28;;;;;;;6.25;3.83;;;;;;;;;;5023824;28;20196;-58
2022/04/19 08:25:54;;;;;;;7.13;4.80;;;;;;;;;;5026703;28;20188;-58
2022/04/19 08:28:20;;;;;;;8.48;4.90;;;;;;;;;;5027334;28;20072;-58
2022/04/19 08:30:46;;;;;;;11.00;4.85;;;;;;;;;;5027692;28;20064;-58
2022/04/19 08:33:12;;;;;;;9.30;4.55;;;;;;;;;;5027350;28;20392;-57
2022/04/19 08:35:38;;;;;;;10.00;4.53;;;;;;;;;;5009168;28;20475;-58
2022/04/19 08:38:05;;;;;;;6.20;3.70;;;;;;;;;;5027358;28;20041;-58
2022/04/19 08:40:32;;;;;;;5.70;2.92;;;;;;;;;;5025989;28;20044;-58
2022/04/19 08:42:59;;;;;;;9.02;4.40;;;;;;;;;;5027650;28;20121;-58
2022/04/19 08:45:26;;;;;;;7.30;3.83;;;;;;;;;;5027529;28;20052;-57
2022/04/19 08:47:53;;;;;;;10.02;5.45;;;;;;;;;;5027416;28;20116;-57
2022/04/19 08:50:20;;;;;;;8.80;4.90;;;;;;;;;;5023548;28;20069;-58
2022/04/19 08:57:29;;;;;;;9.80;4.90;;;;;;;;;;5026545;28;20092;-58
2022/04/19 08:58:18;;;;;;;8.82;3.40;;;;;;;;;;5025368;28;20599;-58
2022/04/19 09:00:44;;;;;;;10.05;3.47;;;;;;;;;;5026716;28;20128;-58
2022/04/19 09:03:10;;;;;;;8.57;4.60;;;;;;;;;;5027033;28;20132;-58
2022/04/19 09:05:49;;;;;;;5.57;3.50;;;;;;;;;;5008589;28;20089;-58
2022/04/19 09:08:15;;;;;;;12.63;3.03;;;;;;;;;;5026638;28;20475;-58
2022/04/19 09:10:41;;;;;;;5.57;2.88;;;;;;;;;;5025853;28;20053;-58
2022/04/19 09:13:09;;;;;;;8.15;3.22;;;;;;;;;;5026877;28;20037;-58
2022/04/19 09:15:40;;;;;;;7.40;2.67;;;;;;;;;;5025426;28;20052;-58
2022/04/19 09:18:13;;;;;;;6.32;2.67;;;;;;;;;;5023081;28;20415;-58
2022/04/19 09:20:39;;;;;;;6.28;3.05;;;;;;;;;;5008269;28;20115;-58
2022/04/19 09:23:06;;;;;;;5.68;2.75;;;;;;;;;;5026229;28;20042;-57
2022/04/19 09:25:32;;;;;;;10.35;2.42;;;;;;;;;;5024744;28;20548;-57
2022/04/19 09:27:59;;;;;;;4.35;1.60;;;;;;;;;;5026745;28;20060;-57
2022/04/19 09:30:26;;;;;;;3.13;1.50;;;;;;;;;;5027026;28;20040;-58
2022/04/19 09:33:02;;;;;;;3.70;1.90;;;;;;;;;;5026151;28;20042;-58
2022/04/19 09:35:30;;;;;;;4.43;1.77;;;;;;;;;;5026551;28;20049;-58
2022/04/19 09:37:56;;;;;;;4.28;1.80;;;;;;;;;;5026528;28;20037;-58
2022/04/19 09:40:30;;;;;;;7.20;1.70;;;;;;;;;;5025590;28;20117;-58
2022/04/19 09:42:56;;;;;;;3.58;1.20;;;;;;;;;;5026769;28;20788;-58
2022/04/19 09:45:23;;;;;;;5.10;1.73;;;;;;;;;;5026268;28;20041;-58
2022/04/19 09:47:51;;;;;;;1.83;1.08;;;;;;;;;;5025521;28;20504;-58
2022/04/19 09:50:17;;;;;;;3.33;1.42;;;;;;;;;;5025351;28;20048;-58
2022/04/19 09:52:48;;;;;;;3.35;1.52;;;;;;;;;;5025621;28;20644;-58
2022/04/19 09:55:16;;;;;;;6.05;1.50;;;;;;;;;;5025340;28;20108;-58
2022/04/19 09:57:43;;;;;;;3.65;0.98;;;;;;;;;;5025819;28;20053;-58
2022/04/19 10:00:12;;;;;;;6.15;1.20;;;;;;;;;;5025603;28;20080;-58
2022/04/19 10:08:27;;;;;;;5.50;1.30;;;;;;;;;;5008051;28;20041;-58
2022/04/19 10:10:56;;;;;;;2.95;1.40;;;;;;;;;;5024004;28;20042;-58
2022/04/19 10:13:23;;;;;;;4.93;1.00;;;;;;;;;;5025400;28;20115;-58
2022/04/19 10:15:49;;;;;;;2.97;1.15;;;;;;;;;;5025557;28;20042;-57
2022/04/19 10:18:16;;;;;;;3.20;1.40;;;;;;;;;;5025652;28;20096;-58
2022/04/19 10:20:46;;;;;;;2.35;1.13;;;;;;;;;;5025175;28;20572;-58
2022/04/19 10:23:13;;;;;;;5.68;1.50;;;;;;;;;;5025228;28;20052;-58
2022/04/19 10:25:40;;;;;;;2.90;1.50;;;;;;;;;;5024368;28;20030;-58
2022/04/19 10:28:08;;;;;;;6.10;2.53;;;;;;;;;;5025319;28;20056;-58
2022/04/19 10:30:47;;;;;;;3.03;1.70;;;;;;;;;;5024284;28;20037;-58
2022/04/19 10:33:32;;;;;;;2.63;1.33;;;;;;;;;;5025174;28;20041;-58
2022/04/19 10:36:12;;;;;;;3.35;1.58;;;;;;;;;;5025300;28;20039;-58
2022/04/19 10:38:38;;;;;;;2.50;1.33;;;;;;;;;;5025178;28;20046;-57
2022/04/19 10:41:05;;;;;;;3.45;1.25;;;;;;;;;;5021009;28;20146;-58
2022/04/19 10:43:31;;;;;;;3.85;1.25;;;;;;;;;;5024326;28;20470;-58
2022/04/19 10:46:16;;;;;;;3.55;1.15;;;;;;;;;;5025073;28;20103;-58
2022/04/19 10:49:00;;;;;;;2.72;1.13;;;;;;;;;;5023906;28;20046;-58
2022/04/19 10:51:27;;;;;;;2.15;1.08;;;;;;;;;;5025029;28;20525;-58
2022/04/19 10:53:53;;;;;;;2.53;1.30;;;;;;;;;;5024432;28;20045;-58
2022/04/19 10:56:20;;;;;;;1.98;1.23;;;;;;;;;;5024138;28;20056;-58
2022/04/19 10:58:46;;;;;;;3.90;2.00;;;;;;;;;;5017047;28;20053;-57
2022/04/19 11:01:28;;;;;;;3.58;1.60;;;;;;;;;;5021392;28;20538;-58
2022/04/19 11:03:56;;;;;;;4.85;2.00;;;;;;;;;;5020796;28;20049;-58
2022/04/19 11:06:31;;;;;;;6.93;1.92;;;;;;;;;;5021950;28;20119;-58
2022/04/19 11:09:08;;;;;;;6.10;1.73;;;;;;;;;;5018111;28;20048;-58
2022/04/19 11:11:45;;;;;;;2.70;1.40;;;;;;;;;;5019669;28;20671;-58
2022/04/19 11:14:20;;;;;;;6.05;1.92;;;;;;;;;;5020682;28;20407;-58
2022/04/19 11:16:50;;;;;;;4.18;1.40;;;;;;;;;;5023204;28;20080;-58
2022/04/19 11:19:20;;;;;;;2.38;1.17;;;;;;;;;;5005253;28;20080;-58
2022/04/19 11:21:50;;;;;;;4.55;1.88;;;;;;;;;;5020676;28;20046;-58
2022/04/19 11:24:35;;;;;;;5.43;1.30;;;;;;;;;;5022137;28;20384;-58
2022/04/19 11:27:01;;;;;;;3.03;1.80;;;;;;;;;;5020585;28;20037;-58
2022/04/19 11:29:27;;;;;;;6.43;1.60;;;;;;;;;;5025127;28;20112;-58
2022/04/19 11:31:53;;;;;;;9.63;1.80;;;;;;;;;;5023805;28;20046;-57
2022/04/19 11:34:19;;;;;;;2.17;1.50;;;;;;;;;;5024341;28;20479;-58
2022/04/19 11:36:45;;;;;;;4.80;1.85;;;;;;;;;;5024228;28;20092;-57
2022/04/19 11:46:43;;;;;;;3.35;1.73;;;;;;;;;;5024074;28;20060;-58
2022/04/19 11:47:43;;;;;;;3.60;1.88;;;;;;;;;;5024036;28;20038;-58
2022/04/19 11:50:24;;;;;;;5.05;1.85;;;;;;;;;;5024517;28;20049;-58
2022/04/19 11:52:51;;;;;;;3.45;1.63;;;;;;;;;;5024014;28;20526;-58
2022/04/19 11:55:19;;;;;;;3.25;1.60;;;;;;;;;;5023130;28;20140;-58
2022/04/19 11:57:46;;;;;;;2.65;1.75;;;;;;;;;;5023759;28;20077;-58
2022/04/19 12:00:16;;;;;;;6.20;1.67;;;;;;;;;;5024091;28;20045;-58
2022/04/19 12:02:42;;;;;;;3.28;1.92;;;;;;;;;;5023913;28;20050;-58
2022/04/19 12:05:08;;;;;;;5.03;1.65;;;;;;;;;;5024436;28;20045;-58
2022/04/19 12:07:45;;;;;;;5.07;2.13;;;;;;;;;;5023407;28;20057;-59
2022/04/19 12:10:11;;;;;;;6.57;1.80;;;;;;;;;;5023487;28;20041;-58
2022/04/19 12:12:37;;;;;;;5.20;1.80;;;;;;;;;;5023799;28;20050;-58
2022/04/19 12:15:03;;;;;;;4.07;1.40;;;;;;;;;;5024392;28;20045;-58
2022/04/19 12:17:31;;;;;;;4.00;2.10;;;;;;;;;;5024388;28;20053;-57
2022/04/19 12:20:05;;;;;;;3.42;2.25;;;;;;;;;;5024558;28;20061;-58
2022/04/19 12:22:33;;;;;;;4.20;1.90;;;;;;;;;;5023079;28;20056;-58
2022/04/19 12:24:59;;;;;;;5.43;2.08;;;;;;;;;;5023743;28;20049;-58
2022/04/19 12:27:28;;;;;;;4.45;2.30;;;;;;;;;;5024307;28;20053;-58
2022/04/19 12:29:55;;;;;;;5.30;2.40;;;;;;;;;;5020380;28;20046;-58
2022/04/19 12:32:22;;;;;;;7.18;2.30;;;;;;;;;;5023826;28;20064;-57
2022/04/19 12:34:48;;;;;;;5.50;2.30;;;;;;;;;;5023501;28;20045;-58
2022/04/19 12:37:18;;;;;;;4.35;2.63;;;;;;;;;;5023034;28;21544;-58
2022/04/19 12:39:58;;;;;;;6.75;2.75;;;;;;;;;;5022457;28;20046;-58
2022/04/19 12:42:24;;;;;;;5.75;3.25;;;;;;;;;;5021324;28;20050;-58
2022/04/19 12:45:03;;;;;;;7.25;3.03;;;;;;;;;;5023195;28;20049;-58
2022/04/19 12:47:29;;;;;;;7.13;2.08;;;;;;;;;;5023703;28;20112;-58
2022/04/19 12:49:56;;;;;;;3.20;1.77;;;;;;;;;;5005638;28;20048;-58
2022/04/19 12:52:30;;;;;;;5.77;1.67;;;;;;;;;;5027018;28;20107;-58
2022/04/19 12:55:00;;;;;;;5.88;1.92;;;;;;;;;;5026653;28;20131;-57
2022/04/19 12:57:27;;;;;;;3.47;1.90;;;;;;;;;;5027117;28;20045;-58
2022/04/19 12:59:53;;;;;;;6.90;4.28;;;;;;;;;;5026296;28;20095;-58
2022/04/19 13:02:20;;;;;;;4.57;2.40;;;;;;;;;;5026115;28;20139;-58
2022/04/19 13:04:47;;;;;;;3.88;2.30;;;;;;;;;;5023405;28;20048;-58
2022/04/19 13:12:44;;;;;;;5.07;1.42;;;;;;;;;;5025553;28;20447;-58
2022/04/19 13:15:10;;;;;;;5.75;2.22;;;;;;;;;;5026344;28;20046;-58
2022/04/19 13:17:39;;;;;;;4.65;2.40;;;;;;;;;;5026827;28;20034;-58
2022/04/19 13:20:06;;;;;;;3.28;2.03;;;;;;;;;;5026817;28;20104;-57
2022/04/19 13:22:32;;;;;;;6.63;1.52;;;;;;;;;;5026541;28;20057;-58
2022/04/19 13:24:59;;;;;;;3.28;1.65;;;;;;;;;;5026617;28;20045;-58
2022/04/19 13:27:26;;;;;;;2.17;1.15;;;;;;;;;;5026966;28;20052;-57
2022/04/19 13:29:52;;;;;;;2.55;1.55;;;;;;;;;;5008194;28;20132;-58
2022/04/19 13:32:20;;;;;;;5.15;2.20;;;;;;;;;;5026274;28;20057;-58
2022/04/19 13:34:46;;;;;;;3.97;1.90;;;;;;;;;;5026053;28;20052;-58
2022/04/19 13:37:14;;;;;;;3.92;2.10;;;;;;;;;;5005054;28;20053;-58
2022/04/19 13:39:40;;;;;;;8.68;2.35;;;;;;;;;;5024666;28;20041;-57
2022/04/19 13:42:06;;;;;;;4.35;2.00;;;;;;;;;;5026237;28;20569;-58
2022/04/19 13:44:33;;;;;;;7.38;2.10;;;;;;;;;;5026188;28;20317;-58
2022/04/19 13:46:59;;;;;;;4.15;1.90;;;;;;;;;;5026592;28;20041;-58
2022/04/19 13:49:26;;;;;;;3.88;2.00;;;;;;;;;;5026296;28;20041;-58
2022/04/19 13:51:53;;;;;;;4.05;1.70;;;;;;;;;;5025997;28;20079;-58
2022/04/19 13:54:20;;;;;;;3.42;2.03;;;;;;;;;;5025628;28;20112;-58
2022/04/19 13:56:46;;;;;;;4.22;2.30;;;;;;;;;;5024685;28;20663;-55
2022/04/19 13:59:14;;;;;;;12.73;2.20;;;;;;;;;;5026265;28;20690;-56
2022/04/19 14:01:41;;;;;;;6.35;2.10;;;;;;;;;;5025337;28;20156;-56
2022/04/19 14:04:08;;;;;;;4.72;2.50;;;;;;;;;;5025385;28;20117;-55
2022/04/19 14:06:38;;;;;;;5.18;1.90;;;;;;;;;;5024802;28;20049;-56
2022/04/19 14:09:05;;;;;;;7.05;2.22;;;;;;;;;;5025559;28;20047;-55
2022/04/19 14:11:34;;;;;;;4.22;2.15;;;;;;;;;;5025046;28;20441;-55
2022/04/19 14:14:00;;;;;;;4.70;2.40;;;;;;;;;;5023032;28;20120;-55
2022/04/19 14:16:26;;;;;;;3.55;1.80;;;;;;;;;;5026051;28;20053;-56
2022/04/19 14:18:52;;;;;;;3.13;1.95;;;;;;;;;;5025254;28;20033;-57
2022/04/19 14:21:19;;;;;;;4.13;2.00;;;;;;;;;;5025622;28;20044;-57
2022/04/19 14:23:45;;;;;;;3.90;2.10;;;;;;;;;;5024123;28;20073;-57
2022/04/19 14:26:11;;;;;;;3.72;2.10;;;;;;;;;;5024617;28;20124;-57
2022/04/19 14:34:07;;;;;;;3.70;1.83;;;;;;;;;;5025104;28;20104;-56
2022/04/19 14:36:33;;;;;;;6.25;2.20;;;;;;;;;;5025139;28;20696;-57
2022/04/19 14:39:00;;;;;;;4.57;2.28;;;;;;;;;;5025687;28;20095;-57
2022/04/19 14:41:26;;;;;;;3.72;1.90;;;;;;;;;;5024781;28;20239;-57
2022/04/19 14:43:52;;;;;;;6.25;2.10;;;;;;;;;;5024897;28;20049;-57
2022/04/19 14:46:18;;;;;;;9.50;2.42;;;;;;;;;;5025365;28;20084;-59
2022/04/19 14:48:44;;;;;;;4.63;2.72;;;;;;;;;;5024134;28;20044;-58
2022/04/19 14:53:56;;;;;;;3.45;2.13;;;;;;;;;;5024909;28;20402;-58
2022/04/19 14:56:23;;;;;;;9.98;2.90;;;;;;;;;;5024243;28;20396;-57
2022/04/19 14:58:49;;;;;;;5.93;2.60;;;;;;;;;;5024959;28;20042;-57
2022/04/19 15:01:16;;;;;;;4.80;3.03;;;;;;;;;;5024870;28;20037;-57
2022/04/19 15:03:42;;;;;;;4.10;2.42;;;;;;;;;;5024327;28;20453;-58
2022/04/19 15:06:09;;;;;;;8.80;2.90;;;;;;;;;;5007046;28;20053;-58
2022/04/19 15:08:35;;;;;;;6.28;3.13;;;;;;;;;;5020790;28;20053;-58
2022/04/19 15:11:01;;;;;;;7.20;2.92;;;;;;;;;;5024098;28;20329;-58
2022/04/19 15:13:28;;;;;;;10.02;3.10;;;;;;;;;;5023897;28;20033;-57
2022/04/19 15:15:54;;;;;;;6.85;2.83;;;;;;;;;;5024839;28;20049;-58
2022/04/19 15:18:20;;;;;;;5.18;2.80;;;;;;;;;;5024603;28;20429;-58
2022/04/19 15:20:47;;;;;;;9.85;3.13;;;;;;;;;;5024347;28;20060;-58
2022/04/19 15:23:15;;;;;;;9.70;3.60;;;;;;;;;;5023768;28;20057;-58